Time;durP1;ratioP1;P1;durP2;ratioP2;P2;SDS_P1;SDS_P2;PMS_P1;PMS_P2;Temp;Humidity;BMP_temperature;BMP_pressure;BME280_temperature;BME280_humidity;BME280_pressure;Samples;Min_cycle;Max_cycle;Signal;HPM_P1;HPM_P2
2021/09/03 00:02:08;;;;;;;4.57;2.90;;;27.40;97.80;;;;;;5063823;28;20208;-90
2021/09/03 00:04:41;;;;;;;3.40;2.57;;;27.50;98.10;;;;;;5072919;28;20232;-90
2021/09/03 00:10:20;;;;;;;3.43;2.40;;;27.40;97.80;;;;;;5049832;23;20242;-90
2021/09/03 00:12:52;;;;;;;2.73;2.37;;;27.50;97.00;;;;;;5032215;23;20340;-90
2021/09/03 00:15:26;;;;;;;2.90;2.43;;;27.50;96.10;;;;;;5000850;28;20226;-91
2021/09/03 00:18:02;;;;;;;4.53;2.27;;;27.50;96.40;;;;;;5002642;28;20297;-91
2021/09/03 00:20:37;;;;;;;5.03;2.40;;;27.50;97.00;;;;;;5002963;28;20213;-91
2021/09/03 00:26:07;;;;;;;2.93;2.17;;;27.70;96.50;;;;;;5015238;28;20256;-91
2021/09/03 00:28:38;;;;;;;2.80;2.40;;;27.80;95.50;;;;;;4996331;28;20298;-91
2021/09/03 00:31:11;;;;;;;2.73;2.17;;;27.80;95.30;;;;;;4996363;28;20658;-91
2021/09/03 00:33:43;;;;;;;3.77;2.10;;;27.80;95.90;;;;;;5000770;28;20206;-90
2021/09/03 00:36:23;;;;;;;2.73;1.40;;;27.80;95.20;;;;;;5004695;28;20231;-91
2021/09/03 00:38:56;;;;;;;3.17;1.80;;;27.80;94.80;;;;;;4992467;28;20214;-91
2021/09/03 00:41:28;;;;;;;3.53;1.87;;;27.60;95.50;;;;;;5007998;28;20206;-91
2021/09/03 00:44:02;;;;;;;2.60;1.57;;;27.50;95.60;;;;;;5007792;28;20249;-91
2021/09/03 00:54:40;;;;;;;1.53;1.43;;;27.40;94.60;;;;;;5048399;28;20645;-90
2021/09/03 00:57:11;;;;;;;3.30;1.53;;;27.30;94.00;;;;;;5046969;28;20212;-91
2021/09/03 00:59:44;;;;;;;5.40;1.70;;;27.30;94.30;;;;;;5046285;28;20204;-90
2021/09/03 01:02:15;;;;;;;2.40;1.43;;;27.10;94.00;;;;;;5030321;28;20201;-91
2021/09/03 01:04:47;;;;;;;1.93;1.60;;;27.00;94.50;;;;;;5042888;28;20602;-89
2021/09/03 01:07:24;;;;;;;2.83;1.57;;;26.80;94.70;;;;;;5039760;28;20220;-90
2021/09/03 01:09:56;;;;;;;1.50;1.27;;;26.80;93.90;;;;;;5029384;28;20205;-90
2021/09/03 01:12:27;;;;;;;4.87;1.80;;;26.60;93.40;;;;;;5030205;28;20209;-90
2021/09/03 01:14:59;;;;;;;4.53;1.73;;;26.20;94.60;;;;;;5036019;28;20209;-91
2021/09/03 01:17:31;;;;;;;4.20;1.40;;;26.10;95.10;;;;;;5044510;28;20205;-90
2021/09/03 01:22:44;;;;;;;2.03;1.53;;;26.30;95.60;;;;;;5019811;22;20250;-90
2021/09/03 01:25:29;;;;;;;1.50;1.20;;;26.60;96.70;;;;;;4987611;28;20326;-90
2021/09/03 01:28:22;;;;;;;3.10;1.43;;;26.30;93.70;;;;;;4987099;28;20238;-91
2021/09/03 01:30:53;;;;;;;2.20;1.30;;;26.00;93.30;;;;;;5015258;28;20196;-90
2021/09/03 01:33:37;;;;;;;3.23;1.80;;;25.60;94.40;;;;;;5014934;28;20221;-91
2021/09/03 01:36:08;;;;;;;4.70;2.07;;;25.20;98.80;;;;;;5010671;28;20229;-89
2021/09/03 01:38:49;;;;;;;3.83;1.83;;;24.90;99.60;;;;;;4999650;28;20241;-92
2021/09/03 01:41:20;;;;;;;5.27;1.97;;;24.70;99.90;;;;;;5006741;28;20198;-92
2021/09/03 01:43:51;;;;;;;4.47;2.03;;;24.40;99.90;;;;;;5014580;28;20217;-92
2021/09/03 01:46:23;;;;;;;2.50;1.60;;;24.10;99.90;;;;;;5009646;28;20230;-93
2021/09/03 01:48:54;;;;;;;6.40;2.43;;;24.00;99.90;;;;;;5010647;28;20190;-91
2021/09/03 01:54:04;;;;;;;3.43;1.67;;;23.60;99.90;;;;;;5029594;22;20338;-93
2021/09/03 01:56:35;;;;;;;3.47;2.07;;;23.40;99.90;;;;;;5029772;28;20265;-93
2021/09/03 01:59:07;;;;;;;3.87;1.97;;;23.30;99.90;;;;;;5026466;28;20202;-93
2021/09/03 02:01:40;;;;;;;4.87;2.07;;;23.10;99.90;;;;;;5002295;28;20206;-93
2021/09/03 02:04:12;;;;;;;5.47;2.17;;;23.00;99.90;;;;;;5014111;28;20232;-92
2021/09/03 02:06:58;;;;;;;3.20;1.57;;;22.90;99.90;;;;;;5024481;28;20207;-92
2021/09/03 02:09:59;;;;;;;2.03;1.73;;;22.80;99.90;;;;;;5014251;28;20725;-92
2021/09/03 02:12:31;;;;;;;5.00;2.00;;;22.60;99.90;;;;;;5024666;28;20212;-93
2021/09/03 02:15:02;;;;;;;4.30;3.03;;;22.50;99.90;;;;;;5029873;28;20212;-92
2021/09/03 02:17:38;;;;;;;3.03;2.00;;;22.40;99.90;;;;;;5021762;28;20213;-92
2021/09/03 02:20:12;;;;;;;3.43;2.10;;;22.30;99.90;;;;;;5179670;23;20252;-91
2021/09/03 02:22:45;;;;;;;2.63;1.80;;;22.20;99.90;;;;;;5030346;28;20190;-91
2021/09/03 02:31:03;;;;;;;4.47;1.80;;;21.70;99.90;;;;;;5038827;28;20205;-90
2021/09/03 02:33:37;;;;;;;2.53;1.90;;;21.50;99.90;;;;;;5037681;28;20212;-91
2021/09/03 02:36:20;;;;;;;2.60;1.80;;;21.30;99.90;;;;;;5037188;28;20209;-90
2021/09/03 02:38:57;;;;;;;2.47;1.70;;;21.10;99.90;;;;;;5015334;28;20210;-90
2021/09/03 02:41:39;;;;;;;2.40;2.10;;;20.90;99.90;;;;;;5019018;28;20216;-91
2021/09/03 02:44:11;;;;;;;3.93;1.83;;;20.80;99.90;;;;;;5037251;28;20185;-91
2021/09/03 02:46:50;;;;;;;2.93;1.97;;;20.60;99.90;;;;;;5035454;28;20328;-90
2021/09/03 02:49:22;;;;;;;3.87;2.07;;;20.40;99.90;;;;;;5030018;28;20202;-89
2021/09/03 02:52:09;;;;;;;3.90;1.80;;;20.30;99.90;;;;;;5102152;23;20300;-90
2021/09/03 02:54:41;;;;;;;5.17;2.50;;;20.10;99.90;;;;;;5032167;28;20205;-91
2021/09/03 02:57:15;;;;;;;12.73;2.70;;;19.90;99.90;;;;;;5029735;28;20194;-94
2021/09/03 02:59:46;;;;;;;5.37;2.67;;;19.80;99.90;;;;;;5031708;28;20194;-91
2021/09/03 03:02:18;;;;;;;3.53;2.30;;;19.80;99.90;;;;;;5030159;28;20225;-91
2021/09/03 03:04:51;;;;;;;5.07;2.10;;;19.60;99.90;;;;;;5031308;28;20198;-90
2021/09/03 03:07:23;;;;;;;7.40;2.30;;;19.50;99.90;;;;;;5029374;28;20201;-91
2021/09/03 03:09:54;;;;;;;2.30;1.97;;;19.40;99.90;;;;;;5032717;28;20186;-92
2021/09/03 03:12:35;;;;;;;4.57;1.97;;;19.30;99.90;;;;;;5029309;28;20209;-91
2021/09/03 03:15:07;;;;;;;2.40;1.77;;;19.20;99.90;;;;;;5029413;28;20205;-91
2021/09/03 03:17:38;;;;;;;3.17;1.90;;;19.10;99.90;;;;;;5030953;28;20213;-92
2021/09/03 03:20:10;;;;;;;2.90;1.90;;;19.00;99.90;;;;;;5028329;28;20209;-92
2021/09/03 03:22:45;;;;;;;2.87;1.93;;;19.00;99.90;;;;;;5031021;28;20194;-91
2021/09/03 03:25:27;;;;;;;3.23;1.70;;;18.90;99.90;;;;;;5024627;28;20311;-90
2021/09/03 03:28:02;;;;;;;6.90;1.87;;;18.80;99.90;;;;;;5030245;28;20193;-91
2021/09/03 03:30:42;;;;;;;7.83;2.30;;;18.70;99.90;;;;;;5028226;28;20218;-91
2021/09/03 03:33:22;;;;;;;3.20;2.03;;;18.60;99.90;;;;;;5020341;28;20213;-91
2021/09/03 03:35:53;;;;;;;3.53;1.60;;;18.50;99.90;;;;;;5025925;28;20197;-91
2021/09/03 03:38:30;;;;;;;4.50;2.30;;;18.50;99.90;;;;;;5018021;28;20229;-90
2021/09/03 03:41:09;;;;;;;4.07;2.00;;;18.40;99.90;;;;;;5011269;28;20206;-90
2021/09/03 03:43:48;;;;;;;3.50;1.70;;;18.30;99.90;;;;;;5017105;28;20201;-91
2021/09/03 03:46:24;;;;;;;3.10;1.50;;;18.20;99.90;;;;;;5021772;28;20229;-91
2021/09/03 03:48:55;;;;;;;2.63;1.90;;;18.10;99.90;;;;;;5023954;28;20210;-91
2021/09/03 03:51:40;;;;;;;4.93;1.87;;;18.10;99.90;;;;;;5009495;28;20213;-91
2021/09/03 03:54:18;;;;;;;5.00;1.80;;;18.00;99.90;;;;;;5012174;28;20234;-91
2021/09/03 03:56:50;;;;;;;4.50;1.90;;;17.90;99.90;;;;;;5008771;28;20210;-91
2021/09/03 03:59:26;;;;;;;6.50;2.10;;;17.90;99.90;;;;;;5110592;23;20281;-91
2021/09/03 04:02:00;;;;;;;5.30;2.33;;;17.80;99.90;;;;;;5016496;28;20190;-90
2021/09/03 04:04:36;;;;;;;3.97;1.90;;;17.70;99.90;;;;;;5033730;22;20237;-90
2021/09/03 04:07:12;;;;;;;2.57;1.80;;;17.60;99.90;;;;;;5000967;28;20297;-91
2021/09/03 04:09:49;;;;;;;4.73;2.10;;;17.60;99.90;;;;;;5000138;28;20212;-91
2021/09/03 04:12:27;;;;;;;4.50;2.10;;;17.50;99.90;;;;;;5011451;28;20225;-92
2021/09/03 04:15:02;;;;;;;6.17;2.47;;;17.50;99.90;;;;;;5013472;28;20270;-90
2021/09/03 04:17:36;;;;;;;2.73;1.77;;;17.40;99.90;;;;;;5011367;28;20217;-91
2021/09/03 04:20:11;;;;;;;2.90;1.93;;;17.40;99.90;;;;;;5012552;28;20206;-92
2021/09/03 04:22:49;;;;;;;3.40;2.00;;;17.30;99.90;;;;;;5011798;28;20194;-91
2021/09/03 04:25:20;;;;;;;2.90;2.00;;;17.20;99.90;;;;;;5005117;28;20198;-91
2021/09/03 04:27:52;;;;;;;3.90;2.10;;;17.20;99.90;;;;;;5000066;28;20206;-91
2021/09/03 04:30:26;;;;;;;3.17;1.80;;;17.20;99.90;;;;;;4998247;28;20210;-92
2021/09/03 04:32:59;;;;;;;4.57;2.00;;;17.10;99.90;;;;;;5017391;28;20723;-92
2021/09/03 04:35:31;;;;;;;3.03;1.67;;;17.00;99.90;;;;;;5021580;28;20324;-92
2021/09/03 04:38:03;;;;;;;4.30;1.90;;;17.00;99.90;;;;;;5022385;28;20244;-92
2021/09/03 04:40:34;;;;;;;3.43;1.73;;;16.90;99.90;;;;;;5022716;28;20214;-90
2021/09/03 04:43:06;;;;;;;2.33;1.80;;;16.90;99.90;;;;;;5019406;28;20216;-91
2021/09/03 04:45:39;;;;;;;3.67;2.20;;;16.80;99.90;;;;;;5017519;28;20244;-91
2021/09/03 04:48:11;;;;;;;4.70;2.03;;;16.80;99.90;;;;;;5003334;28;20670;-90
2021/09/03 04:50:41;;;;;;;2.20;1.80;;;16.70;99.90;;;;;;4997477;28;20238;-91
2021/09/03 04:53:13;;;;;;;4.27;1.80;;;16.70;99.90;;;;;;4997084;28;20226;-91
2021/09/03 04:55:44;;;;;;;3.53;2.00;;;16.70;99.90;;;;;;5000077;28;20515;-90
2021/09/03 05:01:18;;;;;;;3.43;2.10;;;16.60;99.90;;;;;;5005668;28;20198;-90
2021/09/03 05:03:53;;;;;;;4.13;1.93;;;16.50;99.90;;;;;;5000995;28;20212;-90
2021/09/03 05:06:24;;;;;;;3.17;2.20;;;16.50;99.90;;;;;;5014228;28;20218;-89
2021/09/03 05:08:58;;;;;;;3.70;2.00;;;16.40;99.90;;;;;;5015834;28;20206;-88
2021/09/03 05:11:30;;;;;;;3.77;1.67;;;16.40;99.90;;;;;;5009344;28;20572;-90
2021/09/03 05:14:02;;;;;;;3.50;1.97;;;16.40;99.90;;;;;;5004986;28;20202;-91
2021/09/03 05:16:36;;;;;;;4.37;2.00;;;16.30;99.90;;;;;;5013187;28;20213;-91
2021/09/03 05:19:08;;;;;;;4.03;2.17;;;16.20;99.90;;;;;;5012605;28;20285;-89
2021/09/03 05:21:40;;;;;;;6.23;2.17;;;16.20;99.90;;;;;;4982496;28;20206;-90
2021/09/03 05:24:12;;;;;;;2.57;1.80;;;16.20;99.90;;;;;;4995602;28;20208;-91
2021/09/03 05:26:44;;;;;;;2.90;1.90;;;16.20;99.90;;;;;;4994434;28;20250;-91
2021/09/03 05:29:15;;;;;;;2.53;2.10;;;16.10;99.90;;;;;;5006985;28;20194;-91
2021/09/03 05:31:47;;;;;;;3.40;1.93;;;16.10;99.90;;;;;;4990235;28;20264;-90
2021/09/03 05:34:19;;;;;;;2.97;1.93;;;16.10;99.90;;;;;;5003928;28;20261;-90
2021/09/03 05:36:50;;;;;;;2.97;2.30;;;16.10;99.90;;;;;;5002409;28;20293;-90
2021/09/03 05:39:21;;;;;;;2.17;1.93;;;16.00;99.90;;;;;;4999764;28;20269;-91
2021/09/03 05:41:52;;;;;;;3.53;2.10;;;16.00;99.90;;;;;;4998950;28;20244;-91
2021/09/03 05:44:24;;;;;;;2.67;2.00;;;15.90;99.90;;;;;;4981393;28;20207;-90
2021/09/03 05:46:57;;;;;;;3.17;2.20;;;15.90;99.90;;;;;;4999581;28;20732;-90
2021/09/03 05:49:28;;;;;;;3.00;2.00;;;15.80;99.90;;;;;;4999523;28;20207;-89
2021/09/03 05:51:59;;;;;;;3.80;2.30;;;15.80;99.90;;;;;;4999807;28;20217;-89
2021/09/03 05:54:30;;;;;;;2.37;1.77;;;15.70;99.90;;;;;;5001804;28;20217;-90
2021/09/03 05:57:04;;;;;;;3.07;2.17;;;15.70;99.90;;;;;;5002028;28;20210;-89
2021/09/03 05:59:35;;;;;;;2.63;1.97;;;15.70;99.90;;;;;;5015170;28;20210;-90
2021/09/03 06:02:09;;;;;;;2.83;1.73;;;15.70;99.90;;;;;;5008171;28;20206;-90
2021/09/03 06:04:40;;;;;;;5.20;2.20;;;15.60;99.90;;;;;;5005750;28;20282;-89
2021/09/03 06:07:12;;;;;;;4.67;2.10;;;15.60;99.90;;;;;;5003394;28;20261;-90
2021/09/03 06:09:43;;;;;;;4.10;1.97;;;15.60;99.90;;;;;;5002467;28;20675;-90
2021/09/03 06:12:14;;;;;;;2.70;1.60;;;15.50;99.90;;;;;;5003020;28;20237;-90
2021/09/03 06:14:45;;;;;;;3.57;2.23;;;15.50;99.90;;;;;;5010744;28;20252;-91
2021/09/03 06:17:18;;;;;;;5.87;2.20;;;15.50;99.90;;;;;;5019553;28;20218;-91
2021/09/03 06:19:49;;;;;;;5.40;2.50;;;15.50;99.90;;;;;;5019626;28;20182;-90
2021/09/03 06:22:20;;;;;;;4.57;2.10;;;15.40;99.90;;;;;;5002481;28;20199;-90
2021/09/03 06:24:51;;;;;;;3.47;2.00;;;15.40;99.90;;;;;;4993429;28;20218;-91
2021/09/03 06:27:23;;;;;;;6.17;2.40;;;15.40;99.90;;;;;;5004637;28;20641;-89
2021/09/03 06:29:54;;;;;;;3.43;2.10;;;15.30;99.90;;;;;;4985132;28;20207;-90
2021/09/03 06:32:29;;;;;;;5.03;2.10;;;15.40;99.90;;;;;;4982729;28;20210;-90
2021/09/03 06:35:03;;;;;;;4.07;1.63;;;15.30;99.90;;;;;;4982459;28;20297;-91
2021/09/03 06:37:35;;;;;;;3.23;1.80;;;15.30;99.90;;;;;;4983119;28;20223;-91
2021/09/03 06:40:07;;;;;;;3.77;1.80;;;15.30;99.90;;;;;;4987992;28;20213;-90
2021/09/03 06:42:38;;;;;;;3.40;2.03;;;15.20;99.90;;;;;;5001248;28;20737;-90
2021/09/03 06:45:12;;;;;;;3.53;1.80;;;15.20;99.90;;;;;;5004374;28;20272;-90
2021/09/03 06:47:45;;;;;;;3.77;2.30;;;15.10;99.90;;;;;;5000423;28;20272;-90
2021/09/03 06:50:18;;;;;;;4.47;2.17;;;15.10;99.90;;;;;;5001604;28;20301;-89
2021/09/03 06:52:50;;;;;;;2.83;2.07;;;15.00;99.90;;;;;;5001629;28;20220;-90
2021/09/03 06:55:22;;;;;;;3.23;2.20;;;15.00;99.90;;;;;;5002988;28;20253;-89
2021/09/03 06:57:53;;;;;;;6.03;2.13;;;14.90;99.90;;;;;;5002067;28;20225;-90
2021/09/03 07:00:25;;;;;;;2.33;2.13;;;14.90;99.90;;;;;;5002012;28;20214;-88
2021/09/03 07:03:00;;;;;;;3.53;2.20;;;14.90;99.90;;;;;;5001018;28;20574;-91
2021/09/03 07:05:31;;;;;;;3.57;2.57;;;14.90;99.90;;;;;;5001720;28;20213;-91
2021/09/03 07:08:04;;;;;;;3.27;2.23;;;14.90;99.90;;;;;;5002969;28;20242;-90
2021/09/03 07:10:39;;;;;;;6.07;2.70;;;14.90;99.90;;;;;;5001394;28;20296;-90
2021/09/03 07:13:12;;;;;;;2.30;2.10;;;14.80;99.90;;;;;;5000941;28;20218;-89
2021/09/03 07:15:43;;;;;;;4.17;2.33;;;14.70;99.90;;;;;;5002754;28;20220;-90
2021/09/03 07:18:17;;;;;;;6.03;3.10;;;14.70;99.90;;;;;;5000711;28;20665;-90
2021/09/03 07:20:49;;;;;;;3.10;2.53;;;14.60;99.90;;;;;;5007369;28;20198;-91
2021/09/03 07:23:20;;;;;;;5.97;2.63;;;14.60;99.90;;;;;;5005362;28;20634;-91
2021/09/03 07:25:56;;;;;;;3.03;2.73;;;14.60;99.90;;;;;;5017224;28;20210;-91
2021/09/03 07:28:31;;;;;;;5.27;2.90;;;14.50;99.90;;;;;;5014488;28;20240;-90
2021/09/03 07:31:02;;;;;;;4.07;3.10;;;14.50;99.90;;;;;;5009537;28;20206;-90
2021/09/03 07:33:37;;;;;;;6.30;2.87;;;14.50;99.90;;;;;;5007865;28;20305;-89
2021/09/03 07:36:08;;;;;;;5.27;2.80;;;14.50;99.90;;;;;;5013719;28;20213;-91
2021/09/03 07:38:39;;;;;;;3.60;2.57;;;14.40;99.90;;;;;;5011527;28;20245;-91
2021/09/03 07:41:11;;;;;;;5.83;3.20;;;14.40;99.90;;;;;;5008263;28;20230;-90
2021/09/03 07:43:42;;;;;;;4.73;2.77;;;14.40;99.90;;;;;;5011776;28;20217;-90
2021/09/03 07:46:17;;;;;;;7.10;3.00;;;14.40;99.90;;;;;;5007777;28;20214;-91
2021/09/03 07:48:51;;;;;;;4.00;2.90;;;14.40;99.90;;;;;;5012672;28;20256;-90
2021/09/03 07:51:22;;;;;;;3.60;2.90;;;14.30;99.90;;;;;;5016534;28;20255;-90
2021/09/03 07:53:53;;;;;;;5.03;3.17;;;14.30;99.90;;;;;;5012432;28;20230;-89
2021/09/03 07:56:27;;;;;;;4.87;3.10;;;14.30;99.90;;;;;;5007110;28;20238;-90
2021/09/03 07:58:59;;;;;;;4.07;2.80;;;14.20;99.90;;;;;;5005077;28;20217;-90
2021/09/03 08:01:30;;;;;;;9.50;3.43;;;14.20;99.90;;;;;;5002363;28;20249;-90
2021/09/03 08:04:04;;;;;;;5.23;3.13;;;14.20;99.90;;;;;;5000536;28;20233;-90
2021/09/03 08:06:37;;;;;;;5.37;3.30;;;14.20;99.90;;;;;;4996879;28;20270;-90
2021/09/03 08:09:07;;;;;;;7.23;3.73;;;14.20;99.90;;;;;;4995590;28;20253;-91
2021/09/03 08:11:40;;;;;;;5.67;3.00;;;14.10;99.90;;;;;;5001064;28;20297;-90
2021/09/03 08:14:11;;;;;;;6.00;3.27;;;14.10;99.90;;;;;;5000455;28;20297;-90
2021/09/03 08:16:43;;;;;;;6.83;3.00;;;14.10;99.90;;;;;;5000191;28;20277;-89
2021/09/03 08:19:17;;;;;;;3.20;2.70;;;14.10;99.90;;;;;;4998792;28;20222;-90
2021/09/03 08:21:48;;;;;;;4.23;2.90;;;14.10;99.90;;;;;;5000763;28;20638;-90
2021/09/03 08:24:21;;;;;;;3.97;2.80;;;14.00;99.90;;;;;;4999544;28;20210;-91
2021/09/03 08:26:52;;;;;;;3.70;3.00;;;14.00;99.90;;;;;;5001660;28;20279;-91
2021/09/03 08:29:23;;;;;;;5.27;3.40;;;14.00;99.90;;;;;;4999238;28;20238;-91
2021/09/03 08:31:54;;;;;;;3.60;2.97;;;14.00;99.90;;;;;;4999939;28;20225;-91
2021/09/03 08:34:27;;;;;;;4.73;2.93;;;14.00;99.90;;;;;;4999486;28;20210;-91
2021/09/03 08:36:59;;;;;;;4.03;3.20;;;13.90;99.90;;;;;;5013595;28;20233;-91
2021/09/03 08:39:30;;;;;;;5.77;3.50;;;13.80;99.90;;;;;;5016198;28;20225;-90
2021/09/03 08:42:03;;;;;;;4.63;3.00;;;13.80;99.90;;;;;;5016985;28;20209;-91
2021/09/03 08:44:34;;;;;;;4.93;2.67;;;13.70;99.90;;;;;;5001357;28;20682;-90
2021/09/03 08:47:06;;;;;;;5.53;3.30;;;13.70;99.90;;;;;;4999259;28;20238;-91
2021/09/03 08:49:40;;;;;;;5.00;3.17;;;13.70;99.90;;;;;;4997526;28;20261;-90
2021/09/03 08:52:12;;;;;;;6.63;3.37;;;13.60;99.90;;;;;;4997379;28;20230;-90
2021/09/03 08:54:44;;;;;;;5.80;3.20;;;13.60;99.90;;;;;;4997579;28;20274;-89
2021/09/03 08:57:19;;;;;;;3.90;3.13;;;13.60;99.90;;;;;;4998658;28;20214;-89
2021/09/03 08:59:50;;;;;;;4.57;3.33;;;13.60;99.90;;;;;;4997779;28;20218;-90
2021/09/03 09:02:22;;;;;;;4.87;3.23;;;13.50;99.90;;;;;;4997480;28;20293;-90
2021/09/03 09:04:56;;;;;;;4.47;3.20;;;13.50;99.90;;;;;;4998058;28;20636;-89
2021/09/03 09:07:28;;;;;;;5.30;3.23;;;13.40;99.90;;;;;;4997955;28;20810;-90
2021/09/03 09:10:08;;;;;;;4.87;3.27;;;13.40;99.90;;;;;;4997492;28;20288;-90
2021/09/03 09:12:48;;;;;;;4.17;3.00;;;13.40;99.90;;;;;;4997379;28;20237;-90
2021/09/03 09:15:18;;;;;;;4.13;3.40;;;13.30;99.90;;;;;;4998633;28;20245;-90
2021/09/03 09:17:50;;;;;;;5.30;3.47;;;13.30;99.90;;;;;;4996632;28;20206;-90
2021/09/03 09:20:27;;;;;;;3.43;3.10;;;13.30;99.90;;;;;;4996754;28;20631;-92
2021/09/03 09:23:02;;;;;;;5.07;2.87;;;13.30;99.90;;;;;;4998266;28;20281;-90
2021/09/03 09:25:36;;;;;;;3.87;2.93;;;13.30;99.90;;;;;;4997727;28;20229;-90
2021/09/03 09:28:17;;;;;;;4.00;2.70;;;13.30;99.90;;;;;;5014041;23;20225;-90
2021/09/03 09:30:50;;;;;;;4.57;3.10;;;13.30;99.90;;;;;;4996786;28;20252;-90
2021/09/03 09:33:23;;;;;;;3.43;3.13;;;13.30;99.90;;;;;;4996016;28;20224;-90
2021/09/03 09:35:58;;;;;;;3.57;2.93;;;13.20;99.90;;;;;;4997404;28;20213;-90
2021/09/03 09:38:30;;;;;;;4.83;2.80;;;13.20;99.90;;;;;;4996705;28;20269;-90
2021/09/03 09:41:04;;;;;;;4.37;2.90;;;13.20;99.90;;;;;;4996309;28;20198;-90
2021/09/03 09:43:37;;;;;;;5.27;3.03;;;13.20;99.90;;;;;;4997057;28;20248;-90
2021/09/03 09:46:15;;;;;;;3.47;2.47;;;13.20;99.90;;;;;;4996814;28;20241;-90
2021/09/03 09:49:04;;;;;;;8.47;3.10;;;13.20;99.90;;;;;;4997201;28;20762;-89
2021/09/03 09:51:39;;;;;;;5.40;2.80;;;13.10;99.90;;;;;;4996502;28;20628;-90
2021/09/03 09:54:14;;;;;;;4.40;3.27;;;13.10;99.90;;;;;;4997375;28;20235;-89
2021/09/03 09:56:50;;;;;;;3.17;2.67;;;13.00;99.90;;;;;;4997278;28;20237;-88
2021/09/03 09:59:22;;;;;;;3.97;2.90;;;13.00;99.90;;;;;;4995720;28;20211;-89
2021/09/03 10:01:55;;;;;;;4.80;2.70;;;12.90;99.90;;;;;;4996504;28;20207;-89
2021/09/03 10:04:28;;;;;;;4.03;3.27;;;12.90;99.90;;;;;;4996812;28;20214;-89
2021/09/03 10:07:03;;;;;;;8.93;2.83;;;12.90;99.90;;;;;;4995537;28;20210;-89
2021/09/03 10:09:35;;;;;;;5.03;3.23;;;12.80;99.90;;;;;;4997923;28;20249;-89
2021/09/03 10:12:07;;;;;;;4.00;2.87;;;12.80;99.90;;;;;;4996493;28;20269;-91
2021/09/03 10:14:38;;;;;;;3.40;3.00;;;12.80;99.90;;;;;;4997260;28;20593;-89
2021/09/03 10:17:11;;;;;;;7.40;3.07;;;12.80;99.90;;;;;;4996499;28;20213;-88
2021/09/03 10:19:44;;;;;;;10.23;2.90;;;12.70;99.90;;;;;;4996450;28;20302;-90
2021/09/03 10:22:19;;;;;;;5.40;2.93;;;12.70;99.90;;;;;;4996867;28;20248;-90
2021/09/03 10:25:07;;;;;;;7.03;3.00;;;12.60;99.90;;;;;;4998839;28;20252;-89
2021/09/03 10:27:38;;;;;;;5.47;2.97;;;12.50;99.90;;;;;;4995611;28;20301;-90
2021/09/03 10:30:19;;;;;;;4.70;2.93;;;12.50;99.90;;;;;;4997090;28;20249;-91
2021/09/03 10:32:51;;;;;;;5.00;2.60;;;12.40;99.90;;;;;;4996244;28;20673;-90
2021/09/03 10:35:23;;;;;;;4.63;3.23;;;12.40;99.90;;;;;;4993348;28;20207;-90
2021/09/03 10:37:59;;;;;;;7.60;3.20;;;12.40;99.90;;;;;;4977900;28;20254;-90
2021/09/03 10:40:40;;;;;;;4.83;3.07;;;12.30;99.90;;;;;;4976879;28;20211;-89
2021/09/03 10:43:12;;;;;;;4.30;2.90;;;12.30;99.90;;;;;;4978038;28;20278;-90
2021/09/03 10:45:44;;;;;;;4.27;3.10;;;12.30;99.90;;;;;;4977949;28;20238;-90
2021/09/03 10:48:18;;;;;;;6.30;3.20;;;12.30;99.90;;;;;;4980249;28;20270;-89
2021/09/03 10:50:54;;;;;;;5.10;3.07;;;12.20;99.90;;;;;;4980144;28;20329;-89
2021/09/03 10:53:37;;;;;;;4.30;3.17;;;12.20;99.90;;;;;;4981696;28;20281;-89
2021/09/03 10:56:20;;;;;;;3.80;3.27;;;12.20;99.90;;;;;;4999345;28;20202;-89
2021/09/03 10:58:56;;;;;;;4.90;2.90;;;12.20;99.90;;;;;;5008375;28;20187;-88
2021/09/03 11:01:38;;;;;;;4.77;3.03;;;12.20;99.90;;;;;;5010620;28;20206;-89
2021/09/03 11:04:15;;;;;;;4.60;3.30;;;12.20;99.90;;;;;;5002442;28;20297;-89
2021/09/03 11:07:05;;;;;;;5.07;2.80;;;12.20;99.90;;;;;;4992696;28;20238;-89
2021/09/03 11:09:43;;;;;;;5.70;3.00;;;12.20;99.90;;;;;;4984270;28;20422;-89
2021/09/03 11:12:16;;;;;;;4.50;2.90;;;12.20;99.90;;;;;;4991469;28;20202;-89
2021/09/03 11:14:47;;;;;;;5.00;3.60;;;12.20;99.90;;;;;;4999109;28;20716;-89
2021/09/03 11:17:19;;;;;;;6.90;3.23;;;12.20;99.90;;;;;;4998376;28;20730;-88
2021/09/03 11:19:50;;;;;;;8.90;3.20;;;12.10;99.90;;;;;;4999989;28;20241;-89
2021/09/03 11:22:23;;;;;;;6.60;3.00;;;12.10;99.90;;;;;;5001788;28;20245;-90
2021/09/03 11:25:03;;;;;;;7.13;2.70;;;12.10;99.90;;;;;;5005783;28;20214;-90
2021/09/03 11:27:36;;;;;;;8.47;3.40;;;12.00;99.90;;;;;;4999638;28;20218;-90
2021/09/03 11:30:13;;;;;;;4.27;2.83;;;12.00;99.90;;;;;;4996546;28;20223;-90
2021/09/03 11:32:47;;;;;;;3.90;2.63;;;11.90;99.90;;;;;;4979723;28;20621;-89
2021/09/03 11:35:21;;;;;;;4.33;2.70;;;11.90;99.90;;;;;;4980119;28;20266;-90
2021/09/03 11:37:53;;;;;;;5.17;2.80;;;11.90;99.90;;;;;;4980147;28;20226;-90
2021/09/03 11:40:28;;;;;;;4.87;3.23;;;11.90;99.90;;;;;;4978079;28;20692;-90
2021/09/03 11:43:05;;;;;;;3.50;3.00;;;11.90;99.90;;;;;;4984669;28;20210;-90
2021/09/03 11:45:38;;;;;;;4.47;3.17;;;11.90;99.90;;;;;;4998572;28;20240;-90
2021/09/03 11:48:12;;;;;;;2.80;2.60;;;11.80;99.90;;;;;;4979242;28;20564;-89
2021/09/03 11:50:45;;;;;;;4.20;2.73;;;11.80;99.90;;;;;;4981491;28;20273;-89
2021/09/03 11:53:24;;;;;;;4.70;3.23;;;11.70;99.90;;;;;;4978697;28;20301;-89
2021/09/03 11:55:57;;;;;;;3.37;3.07;;;11.70;99.90;;;;;;4979517;28;20235;-89
2021/09/03 11:58:28;;;;;;;5.87;3.30;;;11.70;99.90;;;;;;4979191;28;20238;-89
2021/09/03 12:01:00;;;;;;;5.23;2.43;;;11.70;99.90;;;;;;4979057;28;20290;-89
2021/09/03 12:03:34;;;;;;;5.00;2.87;;;11.70;99.90;;;;;;4978819;28;20211;-89
2021/09/03 12:06:07;;;;;;;4.73;3.13;;;11.70;99.90;;;;;;4984661;28;20207;-89
2021/09/03 12:08:39;;;;;;;5.00;3.17;;;11.70;99.90;;;;;;4998451;28;20252;-89
2021/09/03 12:11:13;;;;;;;3.87;2.90;;;11.70;99.90;;;;;;5000778;28;20333;-88
2021/09/03 12:13:47;;;;;;;5.20;2.87;;;11.70;99.90;;;;;;4997925;28;20260;-89
2021/09/03 12:16:22;;;;;;;4.70;3.17;;;11.70;99.90;;;;;;5000021;28;20230;-89
2021/09/03 12:18:56;;;;;;;4.60;2.60;;;11.70;99.90;;;;;;4999382;28;20345;-90
2021/09/03 12:21:29;;;;;;;4.93;2.90;;;11.60;99.90;;;;;;5000711;28;20248;-90
2021/09/03 12:24:02;;;;;;;4.93;2.90;;;11.50;99.90;;;;;;4998605;28;20691;-90
2021/09/03 12:26:40;;;;;;;5.73;2.77;;;11.50;99.90;;;;;;4985844;28;20652;-90
2021/09/03 12:29:13;;;;;;;6.47;3.03;;;11.50;99.90;;;;;;4978774;28;20270;-90
2021/09/03 12:31:52;;;;;;;4.97;3.00;;;11.60;99.90;;;;;;4979616;28;20329;-90
2021/09/03 12:34:26;;;;;;;4.17;3.10;;;11.60;99.90;;;;;;4979506;28;20207;-89
2021/09/03 12:36:59;;;;;;;4.27;3.00;;;11.60;99.90;;;;;;4981658;28;20238;-90
2021/09/03 12:39:31;;;;;;;6.90;3.10;;;11.50;99.90;;;;;;4997688;28;20233;-89
2021/09/03 12:42:14;;;;;;;4.77;2.77;;;11.50;99.90;;;;;;4998265;28;20210;-90
2021/09/03 12:44:45;;;;;;;5.50;2.77;;;11.50;99.90;;;;;;4997742;28;20349;-89
2021/09/03 12:47:18;;;;;;;4.00;2.73;;;11.50;99.90;;;;;;4999043;28;20313;-90
2021/09/03 12:49:51;;;;;;;3.77;2.97;;;11.50;99.90;;;;;;4998597;28;20638;-89
2021/09/03 12:52:24;;;;;;;5.23;3.00;;;11.50;99.90;;;;;;4997951;28;20297;-89
2021/09/03 12:54:55;;;;;;;4.57;3.00;;;11.50;99.90;;;;;;4998329;28;20294;-89
2021/09/03 12:57:28;;;;;;;3.33;2.93;;;11.50;99.90;;;;;;4999250;28;20214;-89
2021/09/03 13:00:02;;;;;;;3.90;2.47;;;11.50;99.90;;;;;;5000517;28;20289;-89
2021/09/03 13:02:33;;;;;;;5.77;2.90;;;11.50;99.90;;;;;;5001758;28;20245;-89
2021/09/03 13:05:05;;;;;;;4.37;2.83;;;11.50;99.90;;;;;;5000897;28;20230;-89
2021/09/03 13:07:37;;;;;;;5.23;2.90;;;11.50;99.90;;;;;;4986347;28;20215;-89
2021/09/03 13:10:09;;;;;;;4.00;2.93;;;11.50;99.90;;;;;;4981739;28;20215;-89
2021/09/03 13:12:41;;;;;;;3.20;2.90;;;11.50;99.90;;;;;;4995805;28;20219;-89
2021/09/03 13:15:13;;;;;;;5.10;3.23;;;11.50;99.90;;;;;;4997870;28;20195;-89
2021/09/03 13:17:44;;;;;;;4.77;2.87;;;11.50;99.90;;;;;;4996960;28;20218;-89
2021/09/03 13:20:15;;;;;;;4.73;3.37;;;11.40;99.90;;;;;;4995984;28;20211;-90
2021/09/03 13:22:46;;;;;;;3.93;3.07;;;11.40;99.90;;;;;;4996597;28;20226;-90
2021/09/03 13:25:17;;;;;;;4.73;2.93;;;11.40;99.90;;;;;;5000719;28;20202;-90
2021/09/03 13:27:51;;;;;;;4.00;2.80;;;11.40;99.90;;;;;;4988869;28;20221;-90
2021/09/03 13:30:23;;;;;;;4.17;3.27;;;11.40;99.90;;;;;;4999520;28;20261;-92
2021/09/03 13:32:55;;;;;;;6.50;2.90;;;11.30;99.90;;;;;;5002323;28;20214;-90
2021/09/03 13:35:26;;;;;;;4.80;3.40;;;11.30;99.90;;;;;;4999072;28;20369;-90
2021/09/03 13:37:57;;;;;;;5.30;3.50;;;11.40;99.90;;;;;;4983910;28;20214;-89
2021/09/03 13:40:29;;;;;;;4.07;3.30;;;11.30;99.90;;;;;;4999607;28;20210;-90
2021/09/03 13:43:02;;;;;;;5.60;3.33;;;11.30;99.90;;;;;;5009065;28;20198;-89
2021/09/03 13:45:38;;;;;;;5.70;3.50;;;11.30;99.90;;;;;;5013517;28;20229;-90
2021/09/03 13:48:11;;;;;;;4.47;3.30;;;11.30;99.90;;;;;;5006144;28;20202;-88
2021/09/03 13:50:43;;;;;;;5.23;3.60;;;11.20;99.90;;;;;;4999551;28;20240;-89